Time;durP1;ratioP1;P1;durP2;ratioP2;P2;SDS_P1;SDS_P2;PMS_P1;PMS_P2;Temp;Humidity;BMP_temperature;BMP_pressure;BME280_temperature;BME280_humidity;BME280_pressure;Samples;Min_cycle;Max_cycle;Signal;HPM_P1;HPM_P2
2022/03/31 00:01:41;;;;;;;;;;;3.80;99.90;;;;;;5133810;27;19922;-67
2022/03/31 00:04:06;;;;;;;;;;;3.90;99.90;;;;;;5133817;27;19922;-68
2022/03/31 00:06:32;;;;;;;;;;;3.80;99.90;;;;;;5133676;27;19916;-68
2022/03/31 00:08:57;;;;;;;;;;;3.90;99.90;;;;;;5133199;27;19968;-67
2022/03/31 00:11:23;;;;;;;;;;;3.90;99.90;;;;;;5133696;27;19972;-67
2022/03/31 00:13:49;;;;;;;;;;;3.90;99.90;;;;;;5133756;27;19919;-69
2022/03/31 00:16:14;;;;;;;;;;;3.80;99.90;;;;;;5133522;27;19915;-67
2022/03/31 00:18:40;;;;;;;;;;;3.80;99.90;;;;;;5133100;27;19919;-67
2022/03/31 00:33:17;;;;;;;;;;;3.60;99.90;;;;;;5133153;27;19916;-68
2022/03/31 00:35:42;;;;;;;;;;;3.60;99.90;;;;;;5133100;27;19916;-67
2022/03/31 00:38:10;;;;;;;;;;;3.60;99.90;;;;;;5131582;27;19919;-67
2022/03/31 00:40:35;;;;;;;;;;;3.60;99.90;;;;;;5132914;27;19957;-68
2022/03/31 00:43:01;;;;;;;;;;;3.60;99.90;;;;;;5133084;27;19915;-68
2022/03/31 00:45:46;;;;;;;;;;;3.60;99.90;;;;;;5132980;27;19940;-68
2022/03/31 00:48:13;;;;;;;;;;;3.60;99.90;;;;;;5132875;27;19938;-69
2022/03/31 00:50:38;;;;;;;;;;;3.60;99.90;;;;;;5132368;27;19923;-69
2022/03/31 00:53:04;;;;;;;;;;;3.70;99.90;;;;;;5132965;27;20375;-68
2022/03/31 00:55:30;;;;;;;;;;;3.70;99.90;;;;;;5133018;27;19915;-68
2022/03/31 00:57:55;;;;;;;;;;;3.70;99.90;;;;;;5132840;27;19915;-69
2022/03/31 01:00:21;;;;;;;;;;;3.70;99.90;;;;;;5132442;27;19919;-68
2022/03/31 01:02:47;;;;;;;;;;;3.60;99.90;;;;;;5132400;27;19915;-68
2022/03/31 01:05:14;;;;;;;;;;;3.60;99.90;;;;;;5131933;27;19922;-69
2022/03/31 01:07:40;;;;;;;;;;;3.60;99.90;;;;;;5132752;27;19919;-70
2022/03/31 01:10:06;;;;;;;;;;;3.60;99.90;;;;;;5132317;27;19919;-68
2022/03/31 01:12:33;;;;;;;;;;;3.50;99.90;;;;;;5132521;27;20057;-69
2022/03/31 01:15:09;;;;;;;;;;;3.50;99.90;;;;;;5131241;27;19919;-70
2022/03/31 01:17:35;;;;;;;;;;;3.50;99.90;;;;;;5132472;27;19922;-68
2022/03/31 01:20:03;;;;;;;;;;;3.60;99.90;;;;;;5132304;27;19915;-68
2022/03/31 01:22:30;;;;;;;;;;;3.60;99.90;;;;;;5132603;27;19919;-68
2022/03/31 01:24:57;;;;;;;;;;;3.60;99.90;;;;;;5132474;27;19922;-68
2022/03/31 01:27:23;;;;;;;;;;;3.60;99.90;;;;;;5132466;27;20002;-70
2022/03/31 01:29:49;;;;;;;;;;;3.60;99.90;;;;;;5131962;27;20052;-69
2022/03/31 01:32:14;;;;;;;;;;;3.50;99.90;;;;;;5132338;27;20381;-68
2022/03/31 01:34:40;;;;;;;;;;;3.50;99.90;;;;;;5132530;27;20559;-68
2022/03/31 01:37:05;;;;;;;;;;;3.50;99.90;;;;;;5132406;27;19915;-68
2022/03/31 01:39:32;;;;;;;;;;;3.50;99.90;;;;;;5132023;27;19916;-69
2022/03/31 01:41:58;;;;;;;;;;;3.60;99.90;;;;;;5132413;27;20419;-69
2022/03/31 01:44:24;;;;;;;;;;;3.50;99.90;;;;;;5132246;27;19970;-69
2022/03/31 01:46:49;;;;;;;;;;;3.50;99.90;;;;;;5131912;27;19915;-69
2022/03/31 01:49:15;;;;;;;;;;;3.40;99.90;;;;;;5131578;27;19919;-69
2022/03/31 01:51:40;;;;;;;;;;;3.40;99.90;;;;;;5132191;27;19915;-69
2022/03/31 01:54:06;;;;;;;;;;;3.40;99.90;;;;;;5132106;27;19961;-68
2022/03/31 01:56:32;;;;;;;;;;;3.40;99.90;;;;;;5132051;27;19944;-69
2022/03/31 01:58:57;;;;;;;;;;;3.50;99.90;;;;;;5131431;27;19919;-69
2022/03/31 02:01:23;;;;;;;;;;;3.40;99.90;;;;;;5132011;27;19971;-70
2022/03/31 02:03:49;;;;;;;;;;;3.30;99.90;;;;;;5132264;27;19919;-69
2022/03/31 02:06:14;;;;;;;;;;;3.30;99.90;;;;;;5131560;27;19915;-69
2022/03/31 02:08:40;;;;;;;;;;;3.30;99.90;;;;;;5131763;27;19941;-69
2022/03/31 02:11:05;;;;;;;;;;;3.30;99.90;;;;;;5132126;27;19923;-70
2022/03/31 02:13:31;;;;;;;;;;;3.30;99.90;;;;;;5132191;27;20002;-69
2022/03/31 02:15:56;;;;;;;;;;;3.20;99.90;;;;;;5134760;27;19916;-68
2022/03/31 02:18:22;;;;;;;;;;;3.30;99.90;;;;;;5135683;27;19915;-70
2022/03/31 02:20:47;;;;;;;;;;;3.30;99.90;;;;;;5135550;27;19919;-70
2022/03/31 02:23:13;;;;;;;;;;;3.20;99.90;;;;;;5135732;27;20004;-69
2022/03/31 02:25:39;;;;;;;;;;;3.30;99.90;;;;;;5135707;27;19923;-69
2022/03/31 02:28:04;;;;;;;;;;;3.30;99.90;;;;;;5135519;27;19915;-68
2022/03/31 02:30:30;;;;;;;;;;;3.20;99.90;;;;;;5135361;27;19919;-69
2022/03/31 02:32:56;;;;;;;;;;;3.20;99.90;;;;;;5135614;27;19922;-68
2022/03/31 02:35:21;;;;;;;;;;;3.20;99.90;;;;;;5135567;27;20348;-68
2022/03/31 02:37:47;;;;;;;;;;;3.10;99.90;;;;;;5135493;27;20002;-68
2022/03/31 02:40:12;;;;;;;;;;;3.10;99.90;;;;;;5134974;27;19923;-68
2022/03/31 02:42:38;;;;;;;;;;;3.20;99.90;;;;;;5135539;27;19922;-67
2022/03/31 02:45:04;;;;;;;;;;;3.20;99.90;;;;;;5135234;27;19919;-68
2022/03/31 02:47:29;;;;;;;;;;;3.20;99.90;;;;;;5135267;27;19915;-68
2022/03/31 02:49:56;;;;;;;;;;;3.10;99.90;;;;;;5134596;27;19919;-67
2022/03/31 02:52:22;;;;;;;;;;;3.10;99.90;;;;;;5135084;27;19915;-68
2022/03/31 02:57:31;;;;;;;;;;;3.20;99.90;;;;;;5135312;27;19960;-67
2022/03/31 02:59:57;;;;;;;;;;;3.10;99.90;;;;;;5134742;27;19923;-68
2022/03/31 03:02:22;;;;;;;;;;;3.10;99.90;;;;;;5135047;27;20321;-69
2022/03/31 03:04:48;;;;;;;;;;;3.10;99.90;;;;;;5134862;27;19919;-67
2022/03/31 03:07:15;;;;;;;;;;;3.10;99.90;;;;;;5134815;27;19919;-68
2022/03/31 03:09:40;;;;;;;;;;;3.10;99.90;;;;;;5134519;27;19926;-67
2022/03/31 03:12:06;;;;;;;;;;;3.10;99.90;;;;;;5134952;27;20298;-68
2022/03/31 03:14:32;;;;;;;;;;;3.20;99.90;;;;;;5134814;27;20005;-68
2022/03/31 03:16:57;;;;;;;;;;;3.10;99.90;;;;;;5134741;27;20374;-68
2022/03/31 03:19:23;;;;;;;;;;;3.20;99.90;;;;;;5134214;27;19919;-68
2022/03/31 03:21:48;;;;;;;;;;;3.10;99.90;;;;;;5134483;27;20375;-68
2022/03/31 03:24:14;;;;;;;;;;;3.10;99.90;;;;;;5134723;27;19915;-67
2022/03/31 03:26:39;;;;;;;;;;;3.10;99.90;;;;;;5132244;27;19927;-68
2022/03/31 03:29:05;;;;;;;;;;;3.20;99.90;;;;;;5132863;27;20342;-67
2022/03/31 03:31:30;;;;;;;;;;;3.20;99.90;;;;;;5134340;27;19915;-67
2022/03/31 03:33:55;;;;;;;;;;;3.20;99.90;;;;;;5134264;27;19974;-68
2022/03/31 03:36:21;;;;;;;;;;;3.20;99.90;;;;;;5134238;27;19916;-68
2022/03/31 03:38:46;;;;;;;;;;;3.20;99.90;;;;;;5134221;27;19915;-67
2022/03/31 03:41:12;;;;;;;;;;;3.10;99.90;;;;;;5134442;27;19960;-69
2022/03/31 03:43:39;;;;;;;;;;;3.20;99.90;;;;;;5134594;27;20435;-68
2022/03/31 03:46:04;;;;;;;;;;;3.20;99.90;;;;;;5134217;27;19923;-68
2022/03/31 03:48:30;;;;;;;;;;;3.20;99.90;;;;;;5132725;27;19915;-68
2022/03/31 03:50:55;;;;;;;;;;;3.20;99.90;;;;;;5134596;27;19964;-67
2022/03/31 03:53:21;;;;;;;;;;;3.20;99.90;;;;;;5139693;27;19937;-68
2022/03/31 03:55:46;;;;;;;;;;;3.20;99.90;;;;;;5140412;27;20418;-68
2022/03/31 03:58:12;;;;;;;;;;;3.30;99.90;;;;;;5141750;27;20068;-68
2022/03/31 04:00:37;;;;;;;;;;;3.30;99.90;;;;;;5142201;27;19919;-67
2022/03/31 04:03:03;;;;;;;;;;;3.40;99.90;;;;;;5141916;27;19919;-68
2022/03/31 04:05:28;;;;;;;;;;;3.30;99.90;;;;;;5139590;27;19919;-68
2022/03/31 04:07:54;;;;;;;;;;;3.30;99.90;;;;;;5134219;27;20379;-68
2022/03/31 04:10:19;;;;;;;;;;;3.30;99.90;;;;;;5133472;27;19919;-67
2022/03/31 04:12:45;;;;;;;;;;;3.30;99.90;;;;;;5133706;27;20021;-67
2022/03/31 04:15:13;;;;;;;;;;;3.30;99.90;;;;;;5133519;27;19915;-68
2022/03/31 04:17:39;;;;;;;;;;;3.40;99.90;;;;;;5133363;27;20375;-68
2022/03/31 04:20:05;;;;;;;;;;;3.40;99.90;;;;;;5133063;27;19939;-68
2022/03/31 04:22:33;;;;;;;;;;;3.40;99.90;;;;;;5133719;27;20006;-67
2022/03/31 04:24:59;;;;;;;;;;;3.40;99.90;;;;;;5133396;27;19919;-68
2022/03/31 04:27:24;;;;;;;;;;;3.40;99.90;;;;;;5132075;27;20286;-68
2022/03/31 04:29:50;;;;;;;;;;;3.40;99.90;;;;;;5132948;27;19920;-67
2022/03/31 04:32:15;;;;;;;;;;;3.40;99.90;;;;;;5133235;27;20488;-67
2022/03/31 04:34:41;;;;;;;;;;;3.40;99.90;;;;;;5131714;27;19924;-67
2022/03/31 04:37:06;;;;;;;;;;;3.40;99.90;;;;;;5133338;27;19967;-67
2022/03/31 04:39:32;;;;;;;;;;;3.40;99.90;;;;;;5132757;27;20003;-67
2022/03/31 04:41:58;;;;;;;;;;;3.40;99.90;;;;;;5133464;27;20044;-68
2022/03/31 04:44:23;;;;;;;;;;;3.30;99.90;;;;;;5133055;27;19919;-68
2022/03/31 04:46:49;;;;;;;;;;;3.50;99.90;;;;;;5132970;27;19929;-67
2022/03/31 04:49:14;;;;;;;;;;;3.40;99.90;;;;;;5132321;27;19922;-67
2022/03/31 04:51:40;;;;;;;;;;;3.40;99.90;;;;;;5133246;27;19916;-67
2022/03/31 04:54:05;;;;;;;;;;;3.40;99.90;;;;;;5131942;27;19915;-68
2022/03/31 04:56:31;;;;;;;;;;;3.40;99.90;;;;;;5133349;27;20374;-67
2022/03/31 04:58:57;;;;;;;;;;;3.50;99.90;;;;;;5132967;27;19915;-68
2022/03/31 05:01:23;;;;;;;;;;;3.40;99.90;;;;;;5133365;27;19968;-68
2022/03/31 05:03:49;;;;;;;;;;;3.40;99.90;;;;;;5132265;27;19916;-68
2022/03/31 05:06:15;;;;;;;;;;;3.40;99.90;;;;;;5133614;27;19983;-68
2022/03/31 05:08:41;;;;;;;;;;;3.30;99.90;;;;;;5132825;27;19915;-67
2022/03/31 05:11:06;;;;;;;;;;;3.40;99.90;;;;;;5132665;27;19919;-67
2022/03/31 05:13:32;;;;;;;;;;;3.30;99.90;;;;;;5132605;27;19915;-69
2022/03/31 05:15:57;;;;;;;;;;;3.30;99.90;;;;;;5132543;27;19988;-67
2022/03/31 05:18:23;;;;;;;;;;;3.40;99.90;;;;;;5132209;27;19915;-67
2022/03/31 05:20:48;;;;;;;;;;;3.40;99.90;;;;;;5132281;27;19927;-67
2022/03/31 05:23:14;;;;;;;;;;;3.40;99.90;;;;;;5132627;27;20267;-70
2022/03/31 05:25:39;;;;;;;;;;;3.40;99.90;;;;;;5132635;27;19919;-67
2022/03/31 05:28:05;;;;;;;;;;;3.40;99.90;;;;;;5129715;27;19968;-67
2022/03/31 05:30:31;;;;;;;;;;;3.40;99.90;;;;;;5130154;27;19944;-67
2022/03/31 05:32:56;;;;;;;;;;;3.40;99.90;;;;;;5131912;27;20420;-68
2022/03/31 05:35:23;;;;;;;;;;;3.30;99.90;;;;;;5130530;28;19919;-68
2022/03/31 05:37:48;;;;;;;;;;;3.40;99.90;;;;;;5134611;27;19915;-67
2022/03/31 05:40:14;;;;;;;;;;;3.30;99.90;;;;;;5138093;27;19919;-69
2022/03/31 05:42:40;;;;;;;;;;;3.40;99.90;;;;;;5138664;27;19945;-67
2022/03/31 05:45:07;;;;;;;;;;;3.40;99.90;;;;;;5138516;27;19963;-68
2022/03/31 05:47:32;;;;;;;;;;;3.40;99.90;;;;;;5137741;27;19976;-69
2022/03/31 05:49:58;;;;;;;;;;;3.40;99.90;;;;;;5137053;27;20367;-67
2022/03/31 05:52:24;;;;;;;;;;;3.40;99.90;;;;;;5136651;27;19966;-68
2022/03/31 05:54:49;;;;;;;;;;;3.40;99.90;;;;;;5136549;27;19916;-67
2022/03/31 05:57:15;;;;;;;;;;;3.40;99.90;;;;;;5136352;27;19915;-67
2022/03/31 05:59:41;;;;;;;;;;;3.40;99.90;;;;;;5135787;27;19985;-67
2022/03/31 06:02:07;;;;;;;;;;;3.40;99.90;;;;;;5136075;27;19921;-67
2022/03/31 06:04:32;;;;;;;;;;;3.40;99.90;;;;;;5136271;27;19919;-67
2022/03/31 06:06:58;;;;;;;;;;;3.40;99.90;;;;;;5136310;27;19972;-67
2022/03/31 06:09:23;;;;;;;;;;;3.30;99.90;;;;;;5122643;27;20303;-67
2022/03/31 06:11:49;;;;;;;;;;;3.30;99.90;;;;;;5094838;28;19916;-69
2022/03/31 06:14:14;;;;;;;;;;;3.30;99.90;;;;;;5110001;28;19915;-68
2022/03/31 06:16:40;;;;;;;;;;;3.30;99.90;;;;;;5092946;28;20337;-67
2022/03/31 06:19:08;;;;;;;;;;;3.40;99.90;;;;;;5093802;28;19919;-68
2022/03/31 06:21:34;;;;;;;;;;;3.30;99.90;;;;;;5094081;28;19916;-69
2022/03/31 06:24:00;;;;;;;;;;;3.40;99.90;;;;;;5094016;28;19916;-67
2022/03/31 06:26:26;;;;;;;;;;;3.30;99.90;;;;;;5094113;28;20299;-68
2022/03/31 06:28:51;;;;;;;;;;;3.30;99.90;;;;;;5094059;28;19961;-68
2022/03/31 06:31:17;;;;;;;;;;;3.30;99.90;;;;;;5094422;28;19923;-67
2022/03/31 06:33:42;;;;;;;;;;;3.20;99.90;;;;;;5094797;28;20284;-67
2022/03/31 06:36:08;;;;;;;;;;;3.30;99.90;;;;;;5094798;28;19965;-67
2022/03/31 06:38:34;;;;;;;;;;;3.30;99.90;;;;;;5093921;28;19927;-67
2022/03/31 06:41:10;;;;;;;;;;;3.40;99.90;;;;;;5094570;28;19919;-67
2022/03/31 06:43:37;;;;;;;;;;;3.30;99.90;;;;;;5097924;28;19916;-68
2022/03/31 06:46:03;;;;;;;;;;;3.30;99.90;;;;;;5103827;28;19915;-67
2022/03/31 06:48:32;;;;;;;;;;;3.20;99.90;;;;;;5104672;28;20035;-67
2022/03/31 06:50:58;;;;;;;;;;;3.20;99.90;;;;;;5099324;28;19971;-66
2022/03/31 06:53:23;;;;;;;;;;;3.20;99.90;;;;;;5092912;28;19916;-67
2022/03/31 06:55:49;;;;;;;;;;;3.30;99.90;;;;;;5094359;28;20300;-67
2022/03/31 06:58:15;;;;;;;;;;;3.30;99.90;;;;;;5094269;28;20292;-67
2022/03/31 07:00:41;;;;;;;;;;;3.40;99.90;;;;;;5093326;28;19916;-68
2022/03/31 07:03:06;;;;;;;;;;;3.30;99.90;;;;;;5093105;28;20010;-67
2022/03/31 07:05:34;;;;;;;;;;;3.40;99.90;;;;;;5093965;28;20010;-67
2022/03/31 07:08:00;;;;;;;;;;;3.40;99.90;;;;;;5094138;28;19916;-66
2022/03/31 07:10:25;;;;;;;;;;;3.40;99.90;;;;;;5093560;28;20292;-67
2022/03/31 07:12:51;;;;;;;;;;;3.40;99.90;;;;;;5093970;28;19969;-67
2022/03/31 07:15:16;;;;;;;;;;;3.40;99.90;;;;;;5093872;28;19927;-66
2022/03/31 07:17:42;;;;;;;;;;;3.40;99.90;;;;;;5093710;28;20449;-66
2022/03/31 07:20:07;;;;;;;;;;;3.40;99.90;;;;;;5093249;28;19923;-66
2022/03/31 07:22:33;;;;;;;;;;;3.40;99.90;;;;;;5093782;28;20011;-67
2022/03/31 07:24:59;;;;;;;;;;;3.40;99.90;;;;;;5093627;28;19920;-68
2022/03/31 07:27:25;;;;;;;;;;;3.40;99.90;;;;;;5093690;28;19915;-68
2022/03/31 07:29:50;;;;;;;;;;;3.40;99.90;;;;;;5093034;28;20349;-66
2022/03/31 07:32:16;;;;;;;;;;;3.40;99.90;;;;;;5093412;28;19922;-67
2022/03/31 07:34:42;;;;;;;;;;;3.40;99.90;;;;;;5093693;28;19920;-67
2022/03/31 07:37:08;;;;;;;;;;;3.40;99.90;;;;;;5093549;28;19920;-66
2022/03/31 07:39:35;;;;;;;;;;;3.50;99.90;;;;;;5093162;28;20090;-66
2022/03/31 07:42:02;;;;;;;;;;;3.50;99.90;;;;;;5093448;28;20355;-66
2022/03/31 07:44:27;;;;;;;;;;;3.40;99.90;;;;;;5093170;28;20429;-67
2022/03/31 07:46:54;;;;;;;;;;;3.50;99.90;;;;;;5074850;28;19916;-65
2022/03/31 07:49:20;;;;;;;;;;;3.50;99.90;;;;;;5100952;28;19923;-67
2022/03/31 07:51:45;;;;;;;;;;;3.50;99.90;;;;;;5105693;28;19915;-66
2022/03/31 07:54:11;;;;;;;;;;;3.50;99.90;;;;;;5112067;28;20333;-65
2022/03/31 07:56:36;;;;;;;;;;;3.50;99.90;;;;;;5113301;28;19916;-67
2022/03/31 07:59:02;;;;;;;;;;;3.50;99.90;;;;;;5111879;28;19942;-68
2022/03/31 08:01:27;;;;;;;;;;;3.60;99.90;;;;;;5113013;28;19923;-69
2022/03/31 08:03:53;;;;;;;;;;;3.60;99.90;;;;;;5112177;28;20310;-67
2022/03/31 08:06:19;;;;;;;;;;;3.60;99.90;;;;;;5091281;28;19973;-68
2022/03/31 08:08:44;;;;;;;;;;;3.60;99.90;;;;;;5092321;28;20337;-66
2022/03/31 08:11:09;;;;;;;;;;;3.60;99.90;;;;;;5112327;28;19924;-66
2022/03/31 08:13:36;;;;;;;;;;;3.60;99.90;;;;;;5112393;28;20302;-66
2022/03/31 08:16:01;;;;;;;;;;;3.60;99.90;;;;;;5112661;28;19923;-66
2022/03/31 08:18:31;;;;;;;;;;;3.60;99.90;;;;;;5112571;28;19919;-66
2022/03/31 08:20:57;;;;;;;;;;;3.70;99.90;;;;;;5112608;28;20406;-66
2022/03/31 08:23:23;;;;;;;;;;;3.70;99.90;;;;;;5112868;28;20287;-67
2022/03/31 08:25:49;;;;;;;;;;;3.70;99.90;;;;;;5112585;28;19919;-68
2022/03/31 08:28:14;;;;;;;;;;;3.70;99.90;;;;;;5110059;28;19916;-69
2022/03/31 08:30:40;;;;;;;;;;;3.70;99.90;;;;;;5110873;28;19919;-65
2022/03/31 08:33:06;;;;;;;;;;;3.70;99.90;;;;;;5112157;28;19916;-67
2022/03/31 08:35:31;;;;;;;;;;;3.70;99.90;;;;;;5112406;28;19960;-66
2022/03/31 08:37:56;;;;;;;;;;;3.70;99.90;;;;;;5112294;28;19950;-67
2022/03/31 08:40:22;;;;;;;;;;;3.70;99.90;;;;;;5112088;28;20006;-66
2022/03/31 08:42:48;;;;;;;;;;;3.80;99.90;;;;;;5112387;28;19916;-66
2022/03/31 08:45:15;;;;;;;;;;;3.70;99.90;;;;;;5112111;28;19919;-67
2022/03/31 08:47:42;;;;;;;;;;;3.70;99.90;;;;;;5112080;28;19922;-66
2022/03/31 08:50:08;;;;;;;;;;;3.80;99.90;;;;;;5111547;28;20488;-66
2022/03/31 08:52:34;;;;;;;;;;;3.70;99.90;;;;;;5112231;28;19923;-66
2022/03/31 08:55:00;;;;;;;;;;;3.70;99.90;;;;;;5112376;28;20298;-65
2022/03/31 08:57:36;;;;;;;;;;;3.80;99.90;;;;;;5111925;28;20315;-67
2022/03/31 09:00:02;;;;;;;;;;;3.80;99.90;;;;;;5111580;28;19969;-66
2022/03/31 09:02:28;;;;;;;;;;;3.70;99.90;;;;;;5112045;28;19920;-66
2022/03/31 09:05:00;;;;;;;;;;;3.80;99.90;;;;;;5112163;28;19920;-68
2022/03/31 09:07:26;;;;;;;;;;;3.80;99.90;;;;;;5111693;28;19922;-66
2022/03/31 09:09:51;;;;;;;;;;;3.80;99.90;;;;;;5111361;28;20002;-69
2022/03/31 09:12:17;;;;;;;;;;;3.80;99.90;;;;;;5111612;28;19927;-66
2022/03/31 09:14:43;;;;;;;;;;;3.80;99.90;;;;;;5112214;28;19919;-67
2022/03/31 09:17:10;;;;;;;;;;;3.90;99.90;;;;;;5110767;28;20504;-65
2022/03/31 09:19:35;;;;;;;;;;;3.90;99.90;;;;;;5111398;28;19999;-66
2022/03/31 09:22:01;;;;;;;;;;;3.90;99.90;;;;;;5112022;28;20508;-65
2022/03/31 09:24:27;;;;;;;;;;;3.80;99.90;;;;;;5111017;28;19964;-66
2022/03/31 09:26:53;;;;;;;;;;;3.80;99.90;;;;;;5111625;28;19923;-66
2022/03/31 09:29:21;;;;;;;;;;;3.80;99.90;;;;;;5111448;28;19928;-66
2022/03/31 09:31:47;;;;;;;;;;;3.80;99.90;;;;;;5111817;28;19935;-65
2022/03/31 09:34:15;;;;;;;;;;;3.80;99.90;;;;;;5111317;28;19916;-66
2022/03/31 09:36:48;;;;;;;;;;;3.70;99.90;;;;;;5110183;28;19920;-67
2022/03/31 09:39:16;;;;;;;;;;;3.60;99.90;;;;;;5111280;28;19923;-66
2022/03/31 09:41:42;;;;;;;;;;;3.60;99.90;;;;;;5111373;28;20383;-67
2022/03/31 09:44:16;;;;;;;;;;;3.50;99.90;;;;;;5110228;28;19922;-67
2022/03/31 09:46:42;;;;;;;;;;;3.50;99.90;;;;;;5111584;28;19924;-67
2022/03/31 09:49:14;;;;;;;;;;;3.40;99.90;;;;;;5111199;28;19959;-68
2022/03/31 09:51:40;;;;;;;;;;;3.40;99.90;;;;;;5111643;28;19927;-67
2022/03/31 09:54:06;;;;;;;;;;;3.40;99.90;;;;;;5111522;28;19915;-67
2022/03/31 09:56:33;;;;;;;;;;;3.30;99.90;;;;;;5111478;28;20279;-67
2022/03/31 09:59:00;;;;;;;;;;;3.40;99.90;;;;;;5111479;28;19966;-68
2022/03/31 10:01:26;;;;;;;;;;;3.30;99.90;;;;;;5110965;28;20295;-67
2022/03/31 10:03:54;;;;;;;;;;;3.20;99.90;;;;;;5111630;28;20002;-68
2022/03/31 10:06:19;;;;;;;;;;;3.20;99.90;;;;;;5111424;28;20429;-68
2022/03/31 10:08:46;;;;;;;;;;;3.40;99.90;;;;;;5109695;28;20015;-70
2022/03/31 10:11:12;;;;;;;;;;;3.70;99.90;;;;;;5111205;28;19920;-68
2022/03/31 10:13:42;;;;;;;;;;;3.70;99.90;;;;;;5111465;28;19916;-67
2022/03/31 10:16:09;;;;;;;;;;;3.50;99.90;;;;;;5111285;28;19919;-69
2022/03/31 10:18:35;;;;;;;;;;;3.50;99.90;;;;;;5110917;28;20576;-68
2022/03/31 10:21:01;;;;;;;;;;;3.40;99.90;;;;;;5111158;28;19966;-69
2022/03/31 10:26:25;;;;;;;;;;;3.30;99.90;;;;;;5111151;28;19959;-69
2022/03/31 10:28:58;;;;;;;;;;;3.20;99.90;;;;;;5109473;28;19919;-67
2022/03/31 10:31:33;;;;;;;;;;;3.20;99.90;;;;;;5110912;28;19920;-70
2022/03/31 10:33:59;;;;;;;;;;;3.10;99.90;;;;;;5111086;28;20421;-70
2022/03/31 10:36:34;;;;;;;;;;;3.00;99.90;;;;;;5112836;28;19968;-69
2022/03/31 10:39:03;;;;;;;;;;;2.90;99.90;;;;;;5114114;28;20414;-69
2022/03/31 10:41:32;;;;;;;;;;;2.90;99.90;;;;;;5113625;28;19957;-67
2022/03/31 10:43:58;;;;;;;;;;;3.00;99.90;;;;;;5114379;28;19978;-68
2022/03/31 10:46:24;;;;;;;;;;;2.90;99.90;;;;;;5113440;28;19915;-67
2022/03/31 10:48:54;;;;;;;;;;;2.80;99.90;;;;;;5114336;28;19968;-68
2022/03/31 10:51:30;;;;;;;;;;;2.90;99.90;;;;;;5114498;28;19923;-67
2022/03/31 10:53:56;;;;;;;;;;;2.80;99.90;;;;;;5114418;28;19989;-68
2022/03/31 10:56:26;;;;;;;;;;;2.80;99.90;;;;;;5114337;28;19958;-67
2022/03/31 10:58:55;;;;;;;;;;;2.80;99.90;;;;;;5113053;28;20368;-67
2022/03/31 11:01:22;;;;;;;;;;;2.70;99.90;;;;;;5114252;28;19915;-66
2022/03/31 11:03:50;;;;;;;;;;;2.80;99.90;;;;;;5114450;28;19927;-67
2022/03/31 11:06:17;;;;;;;;;;;2.80;99.90;;;;;;5114103;28;20290;-67
2022/03/31 11:08:47;;;;;;;;;;;2.80;99.90;;;;;;5113914;28;19981;-67
2022/03/31 11:11:19;;;;;;;;;;;2.80;99.90;;;;;;5113699;28;19980;-66
2022/03/31 11:13:45;;;;;;;;;;;2.80;99.90;;;;;;5114241;28;19919;-67
2022/03/31 11:16:11;;;;;;;;;;;2.80;99.90;;;;;;5114010;28;19920;-69
2022/03/31 11:18:36;;;;;;;;;;;2.80;99.90;;;;;;5113878;27;19992;-67
2022/03/31 11:21:02;;;;;;;;;;;2.70;99.90;;;;;;5113813;28;19981;-66
2022/03/31 11:23:29;;;;;;;;;;;2.70;99.90;;;;;;5113843;28;20366;-66
2022/03/31 11:25:55;;;;;;;;;;;2.80;99.90;;;;;;5113905;28;20010;-66
2022/03/31 11:28:21;;;;;;;;;;;2.80;99.90;;;;;;5113867;28;19973;-66
2022/03/31 11:30:48;;;;;;;;;;;2.70;99.90;;;;;;5113682;28;19927;-67
2022/03/31 11:33:14;;;;;;;;;;;2.80;99.90;;;;;;5112260;28;19923;-67
2022/03/31 11:35:40;;;;;;;;;;;2.80;99.90;;;;;;5113722;27;19915;-67
2022/03/31 11:38:09;;;;;;;;;;;2.80;99.90;;;;;;5113225;28;20359;-67
2022/03/31 11:40:45;;;;;;;;;;;2.80;99.90;;;;;;5113417;28;20009;-67
2022/03/31 11:43:11;;;;;;;;;;;2.80;99.90;;;;;;5113561;28;19915;-67
2022/03/31 11:45:48;;;;;;;;;;;2.80;99.90;;;;;;5113387;28;19919;-67
2022/03/31 11:48:14;;;;;;;;;;;2.90;99.90;;;;;;5112610;28;19915;-66
2022/03/31 11:50:50;;;;;;;;;;;2.90;99.90;;;;;;5112985;28;20014;-68
2022/03/31 11:53:19;;;;;;;;;;;2.90;99.90;;;;;;5113781;28;19915;-68
2022/03/31 11:56:21;;;;;;;;;;;2.90;99.90;;;;;;5104476;28;19915;-68
2022/03/31 11:58:47;;;;;;;;;;;2.90;99.90;;;;;;5074930;28;19923;-69
2022/03/31 12:01:13;;;;;;;;;;;2.90;99.90;;;;;;5053757;28;19916;-69
2022/03/31 12:03:39;;;;;;;;;;;3.00;99.90;;;;;;5054162;28;20351;-68
2022/03/31 12:06:05;;;;;;;;;;;3.00;99.90;;;;;;5077355;28;19916;-69
2022/03/31 12:08:31;;;;;;;;;;;3.00;99.90;;;;;;5079629;28;19917;-68
2022/03/31 12:10:57;;;;;;;;;;;3.00;99.90;;;;;;5063270;28;19921;-68
2022/03/31 12:13:23;;;;;;;;;;;3.00;99.90;;;;;;5079604;28;19916;-69
2022/03/31 12:16:00;;;;;;;;;;;3.00;99.90;;;;;;5069813;28;20462;-69
2022/03/31 12:18:27;;;;;;;;;;;3.00;99.90;;;;;;5069467;28;19916;-70
2022/03/31 12:20:57;;;;;;;;;;;3.10;99.90;;;;;;5069512;28;19917;-68
2022/03/31 12:23:23;;;;;;;;;;;3.10;99.90;;;;;;5069755;28;20487;-68
2022/03/31 12:25:50;;;;;;;;;;;3.10;99.90;;;;;;5052529;28;20030;-69
2022/03/31 12:28:18;;;;;;;;;;;3.40;99.90;;;;;;5052976;28;19917;-68
2022/03/31 12:30:47;;;;;;;;;;;3.20;99.90;;;;;;5069086;28;19950;-68
2022/03/31 12:33:17;;;;;;;;;;;3.20;99.90;;;;;;5069465;28;19916;-69
2022/03/31 12:35:42;;;;;;;;;;;3.20;99.90;;;;;;5086883;28;20337;-68
2022/03/31 12:38:09;;;;;;;;;;;3.20;99.90;;;;;;5091866;28;19919;-68
2022/03/31 12:40:34;;;;;;;;;;;3.20;99.90;;;;;;5090425;28;19978;-68
2022/03/31 12:43:00;;;;;;;;;;;3.20;99.90;;;;;;5091861;28;19963;-69
2022/03/31 12:45:28;;;;;;;;;;;3.30;99.90;;;;;;5091931;28;20379;-68
2022/03/31 12:47:54;;;;;;;;;;;3.30;99.90;;;;;;5091793;28;19916;-69
2022/03/31 12:50:21;;;;;;;;;;;3.40;99.90;;;;;;5091469;28;19931;-68
2022/03/31 12:53:14;;;;;;;;;;;3.40;99.90;;;;;;5099778;28;19920;-66
2022/03/31 12:55:43;;;;;;;;;;;3.50;99.90;;;;;;5109731;28;19968;-70
2022/03/31 12:58:09;;;;;;;;;;;3.50;99.90;;;;;;5110754;28;19916;-66
2022/03/31 13:00:35;;;;;;;;;;;3.50;99.90;;;;;;5111837;28;20383;-67
2022/03/31 13:03:01;;;;;;;;;;;3.50;99.90;;;;;;5112160;28;19919;-67
2022/03/31 13:05:27;;;;;;;;;;;3.60;99.90;;;;;;5109527;28;19916;-66
2022/03/31 13:07:53;;;;;;;;;;;3.60;99.90;;;;;;5112092;28;19962;-66
2022/03/31 13:10:20;;;;;;;;;;;3.60;99.90;;;;;;5111568;28;19929;-67
2022/03/31 13:12:45;;;;;;;;;;;3.70;99.90;;;;;;5112026;28;19942;-66
2022/03/31 13:15:13;;;;;;;;;;;3.80;99.90;;;;;;5112068;28;19916;-66
2022/03/31 13:17:39;;;;;;;;;;;3.90;99.90;;;;;;5119500;28;20370;-67
2022/03/31 13:20:05;;;;;;;;;;;4.00;99.90;;;;;;5121791;28;19919;-67
2022/03/31 13:22:30;;;;;;;;;;;4.10;99.90;;;;;;5121304;28;20310;-66
2022/03/31 13:24:56;;;;;;;;;;;4.20;99.90;;;;;;5114448;28;19976;-65
2022/03/31 13:27:22;;;;;;;;;;;4.20;99.90;;;;;;5111611;28;20030;-66
2022/03/31 13:29:49;;;;;;;;;;;4.20;99.90;;;;;;5111371;28;20306;-70
2022/03/31 13:32:15;;;;;;;;;;;4.20;99.90;;;;;;5110035;28;19927;-67
2022/03/31 13:34:46;;;;;;;;;;;4.20;99.90;;;;;;5111322;28;19916;-69
2022/03/31 13:37:12;;;;;;;;;;;4.20;99.90;;;;;;5110020;28;19915;-66
2022/03/31 13:39:37;;;;;;;;;;;4.20;99.90;;;;;;5110979;28;20286;-67
2022/03/31 13:42:04;;;;;;;;;;;4.20;99.90;;;;;;5111595;28;19922;-67
2022/03/31 13:44:30;;;;;;;;;;;4.10;99.90;;;;;;5111651;28;20291;-67
2022/03/31 13:46:55;;;;;;;;;;;4.20;99.90;;;;;;5111145;28;19926;-68
2022/03/31 13:49:22;;;;;;;;;;;4.30;99.90;;;;;;5111193;28;19923;-67
2022/03/31 13:51:48;;;;;;;;;;;4.30;99.90;;;;;;5111405;28;20022;-67
2022/03/31 13:54:14;;;;;;;;;;;4.30;99.90;;;;;;5111080;28;20327;-67
2022/03/31 13:56:42;;;;;;;;;;;4.40;99.90;;;;;;5111442;28;19920;-67
2022/03/31 14:01:54;;;;;;;;;;;4.40;99.90;;;;;;5110148;28;19915;-67
2022/03/31 14:04:20;;;;;;;;;;;4.50;99.90;;;;;;5110414;28;19976;-67
2022/03/31 14:06:48;;;;;;;;;;;4.40;99.90;;;;;;5110967;28;19916;-67
2022/03/31 14:09:14;;;;;;;;;;;4.50;99.90;;;;;;5111275;28;19962;-67
2022/03/31 14:11:40;;;;;;;;;;;4.50;99.90;;;;;;5113672;28;19920;-69
2022/03/31 14:14:10;;;;;;;;;;;4.60;99.90;;;;;;5110176;28;19923;-68
2022/03/31 14:16:36;;;;;;;;;;;4.60;99.90;;;;;;5093877;28;19920;-66
2022/03/31 14:19:03;;;;;;;;;;;4.60;99.90;;;;;;5099079;28;19972;-66
2022/03/31 14:21:28;;;;;;;;;;;4.60;99.90;;;;;;5114647;27;20662;-66
2022/03/31 14:23:54;;;;;;;;;;;4.50;99.90;;;;;;5114809;28;19959;-67
2022/03/31 14:26:21;;;;;;;;;;;4.50;99.90;;;;;;5115187;28;19923;-67
2022/03/31 14:28:47;;;;;;;;;;;4.60;99.90;;;;;;5107945;28;20348;-66
2022/03/31 14:31:15;;;;;;;;;;;4.60;99.90;;;;;;5103099;28;20019;-67
2022/03/31 14:33:41;;;;;;;;;;;4.50;99.90;;;;;;5101873;28;19916;-66
2022/03/31 14:36:07;;;;;;;;;;;4.50;99.90;;;;;;5103670;28;19972;-67
2022/03/31 14:38:33;;;;;;;;;;;4.50;99.90;;;;;;5102413;28;20371;-66
2022/03/31 14:41:09;;;;;;;;;;;4.40;99.90;;;;;;5103724;28;19920;-67
2022/03/31 14:43:34;;;;;;;;;;;4.50;99.90;;;;;;5102883;28;20315;-68
2022/03/31 14:46:00;;;;;;;;;;;4.50;99.90;;;;;;5101332;28;19916;-66
2022/03/31 14:48:27;;;;;;;;;;;4.50;99.90;;;;;;5101712;28;19924;-70